Impacts TAF Board INFO
FOR SITUATIONAL AWARENESS. NOT TO BE USED FOR FLIGHT PLANNING PURPOSES.
IDs:

KMSP - Minneapolis-St Paul, MN, US

Issued at 1124 UTC 27 Feb 2017
Updated at 1351 UTC 27 Feb 2017
Potential Impact None Slight Moderate High
Time1253Z 27/14Z 27/15Z 27/16Z 27/17Z 27/18Z 27/19Z 27/20Z 27/21Z 27/22Z 27/23Z 28/00Z 28/01Z 28/02Z
Type OBS PRVL PRVL PRVL PRVL PRVL PRVL PRVL PRVL PRVL PRVL PRVL PRVL PRVL
VIS 10 >6 >6 >6 >6 >6 >6 >6 >6 >6 >6 >6 >6 >6
CIG -- -- -- -- -- -- 200 200 200 200 200 90 90 90
Cover FEW FEW FEW FEW FEW FEW BKN BKN BKN BKN BKN OVC OVC OVC
FltCat VFR VFR VFR VFR VFR VFR VFR VFR VFR VFR VFR VFR VFR VFR
WX -- -- -- -- -- -- -- -- -- -- -- -- -- --
WDir 140 140 140 140 140 140 180 180 180 180 180 140 140 140
WSpd 6 4 4 4 4 4 9 9 9 9 9 8 8 8
WGst -- -- -- -- -- -- -- -- -- -- -- -- -- --

Raw TAF
KMSP 271124Z 2712/2818 14004KT P6SM FEW100
  FM271900 18009KT P6SM BKN200
  FM280000 14008KT P6SM SCT060 OVC090
  FM280900 12007KT 5SM -DZ BR BKN008 OVC020
  FM281400 06004KT 3SM -DZ BR OVC008


Raw METAR
KMSP 271253Z 14006KT 10SM FEW100 M04/M08 A2996 RMK AO2 SLP156 T10441078
KMSP 271153Z 14005KT 10SM CLR M05/M08 A2995 RMK AO2 SLP152 T10501078 11011 21056 55002
KMSP 271053Z 14006KT 10SM FEW090 M05/M07 A2995 RMK AO2 SLP151 T10501072

METAR Board
Radar Display
Forecast Discussion

FOR SITUATIONAL AWARENESS. NOT TO BE USED FOR FLIGHT PLANNING PURPOSES.

Page loaded:  13:51 UTC  |   05:51 AM Pacific  |   06:51 AM Mountain  |   07:51 AM Central  |   08:51 AM Eastern

 

ADVISORIES

FORECASTS

FORECASTS

OBSERVATIONS

USER TOOLS

ABOUT US